sensor_id;sensor_type;location;lat;lon;timestamp;temperature;humidity
23560;DHT22;11958;50.836;4.438;2023-07-02T00:02:08;17.90;73.00
23560;DHT22;11958;50.836;4.438;2023-07-02T00:04:34;18.10;72.40
23560;DHT22;11958;50.836;4.438;2023-07-02T00:07:00;18.00;72.30
23560;DHT22;11958;50.836;4.438;2023-07-02T00:09:26;17.70;73.50
23560;DHT22;11958;50.836;4.438;2023-07-02T00:11:51;18.10;73.50
23560;DHT22;11958;50.836;4.438;2023-07-02T00:14:17;18.00;72.60
23560;DHT22;11958;50.836;4.438;2023-07-02T00:16:44;17.80;72.90
23560;DHT22;11958;50.836;4.438;2023-07-02T00:19:11;17.50;74.50
23560;DHT22;11958;50.836;4.438;2023-07-02T00:21:39;17.70;73.40
23560;DHT22;11958;50.836;4.438;2023-07-02T00:24:06;17.90;74.30
23560;DHT22;11958;50.836;4.438;2023-07-02T00:26:32;18.00;73.00
23560;DHT22;11958;50.836;4.438;2023-07-02T00:28:58;17.90;72.90
23560;DHT22;11958;50.836;4.438;2023-07-02T00:31:24;17.80;74.10
23560;DHT22;11958;50.836;4.438;2023-07-02T00:33:50;17.90;73.80
23560;DHT22;11958;50.836;4.438;2023-07-02T00:36:16;17.60;73.60
23560;DHT22;11958;50.836;4.438;2023-07-02T00:38:44;17.80;74.70
23560;DHT22;11958;50.836;4.438;2023-07-02T00:41:11;17.80;74.20
23560;DHT22;11958;50.836;4.438;2023-07-02T00:43:37;17.50;74.80
23560;DHT22;11958;50.836;4.438;2023-07-02T00:46:14;17.50;75.50
23560;DHT22;11958;50.836;4.438;2023-07-02T00:48:47;17.50;75.30
23560;DHT22;11958;50.836;4.438;2023-07-02T00:51:18;17.80;74.90
23560;DHT22;11958;50.836;4.438;2023-07-02T00:53:45;17.50;74.80
23560;DHT22;11958;50.836;4.438;2023-07-02T00:56:11;17.70;75.70
23560;DHT22;11958;50.836;4.438;2023-07-02T00:58:43;17.40;75.20
23560;DHT22;11958;50.836;4.438;2023-07-02T01:01:19;17.40;74.70
23560;DHT22;11958;50.836;4.438;2023-07-02T01:03:53;17.80;75.30
23560;DHT22;11958;50.836;4.438;2023-07-02T01:06:23;17.90;74.50
23560;DHT22;11958;50.836;4.438;2023-07-02T01:08:56;17.80;74.50
23560;DHT22;11958;50.836;4.438;2023-07-02T01:11:28;17.60;75.40
23560;DHT22;11958;50.836;4.438;2023-07-02T01:14:00;17.40;76.00
23560;DHT22;11958;50.836;4.438;2023-07-02T01:16:27;17.80;74.80
23560;DHT22;11958;50.836;4.438;2023-07-02T01:18:56;17.90;74.80
23560;DHT22;11958;50.836;4.438;2023-07-02T01:21:24;17.70;74.70
23560;DHT22;11958;50.836;4.438;2023-07-02T01:23:50;17.90;74.90
23560;DHT22;11958;50.836;4.438;2023-07-02T01:26:16;18.00;74.40
23560;DHT22;11958;50.836;4.438;2023-07-02T01:28:42;17.90;74.80
23560;DHT22;11958;50.836;4.438;2023-07-02T01:31:08;17.80;74.60
23560;DHT22;11958;50.836;4.438;2023-07-02T01:33:33;17.70;75.60
23560;DHT22;11958;50.836;4.438;2023-07-02T01:35:59;17.50;75.20
23560;DHT22;11958;50.836;4.438;2023-07-02T01:38:25;17.50;76.10
23560;DHT22;11958;50.836;4.438;2023-07-02T01:40:51;17.40;76.60
23560;DHT22;11958;50.836;4.438;2023-07-02T01:43:17;17.60;75.60
23560;DHT22;11958;50.836;4.438;2023-07-02T01:45:43;17.30;76.20
23560;DHT22;11958;50.836;4.438;2023-07-02T01:48:09;17.50;76.40
23560;DHT22;11958;50.836;4.438;2023-07-02T01:50:35;17.60;75.70
23560;DHT22;11958;50.836;4.438;2023-07-02T01:53:00;17.90;75.50
23560;DHT22;11958;50.836;4.438;2023-07-02T01:55:26;17.80;74.90
23560;DHT22;11958;50.836;4.438;2023-07-02T01:57:51;17.80;75.10
23560;DHT22;11958;50.836;4.438;2023-07-02T02:00:17;17.70;76.10
23560;DHT22;11958;50.836;4.438;2023-07-02T02:02:43;17.90;75.90
23560;DHT22;11958;50.836;4.438;2023-07-02T02:05:09;17.80;76.10
23560;DHT22;11958;50.836;4.438;2023-07-02T02:07:38;17.80;76.30
23560;DHT22;11958;50.836;4.438;2023-07-02T02:10:04;17.80;76.40
23560;DHT22;11958;50.836;4.438;2023-07-02T02:12:30;17.70;76.30
23560;DHT22;11958;50.836;4.438;2023-07-02T02:14:56;17.70;76.50
23560;DHT22;11958;50.836;4.438;2023-07-02T02:17:22;18.00;76.30
23560;DHT22;11958;50.836;4.438;2023-07-02T02:19:49;17.70;76.60
23560;DHT22;11958;50.836;4.438;2023-07-02T02:22:15;17.90;76.20
23560;DHT22;11958;50.836;4.438;2023-07-02T02:24:41;17.50;76.70
23560;DHT22;11958;50.836;4.438;2023-07-02T02:27:07;17.60;76.80
23560;DHT22;11958;50.836;4.438;2023-07-02T02:29:32;17.60;76.70
23560;DHT22;11958;50.836;4.438;2023-07-02T02:31:58;17.50;77.30
23560;DHT22;11958;50.836;4.438;2023-07-02T02:34:24;17.40;77.50
23560;DHT22;11958;50.836;4.438;2023-07-02T02:36:49;17.50;77.30
23560;DHT22;11958;50.836;4.438;2023-07-02T02:39:15;17.40;77.40
23560;DHT22;11958;50.836;4.438;2023-07-02T02:41:41;17.70;77.40
23560;DHT22;11958;50.836;4.438;2023-07-02T02:44:07;17.60;77.20
23560;DHT22;11958;50.836;4.438;2023-07-02T02:46:32;17.50;77.50
23560;DHT22;11958;50.836;4.438;2023-07-02T02:48:58;17.30;77.70
23560;DHT22;11958;50.836;4.438;2023-07-02T02:51:24;17.30;78.00
23560;DHT22;11958;50.836;4.438;2023-07-02T02:53:50;17.50;78.20
23560;DHT22;11958;50.836;4.438;2023-07-02T02:56:15;17.70;77.60
23560;DHT22;11958;50.836;4.438;2023-07-02T02:58:41;17.30;78.10
23560;DHT22;11958;50.836;4.438;2023-07-02T03:01:07;17.30;78.10
23560;DHT22;11958;50.836;4.438;2023-07-02T03:03:41;17.20;78.80
23560;DHT22;11958;50.836;4.438;2023-07-02T03:06:14;17.20;79.20
23560;DHT22;11958;50.836;4.438;2023-07-02T03:08:40;17.40;78.60
23560;DHT22;11958;50.836;4.438;2023-07-02T03:11:06;17.30;78.70
23560;DHT22;11958;50.836;4.438;2023-07-02T03:13:32;17.50;78.60
23560;DHT22;11958;50.836;4.438;2023-07-02T03:15:57;17.20;78.80
23560;DHT22;11958;50.836;4.438;2023-07-02T03:18:23;17.20;80.00
23560;DHT22;11958;50.836;4.438;2023-07-02T03:20:48;17.30;79.20
23560;DHT22;11958;50.836;4.438;2023-07-02T03:23:14;17.20;79.40
23560;DHT22;11958;50.836;4.438;2023-07-02T03:25:40;17.10;79.70
23560;DHT22;11958;50.836;4.438;2023-07-02T03:28:05;17.20;79.60
23560;DHT22;11958;50.836;4.438;2023-07-02T03:30:31;17.10;80.20
23560;DHT22;11958;50.836;4.438;2023-07-02T03:32:57;17.20;79.70
23560;DHT22;11958;50.836;4.438;2023-07-02T03:35:23;17.30;79.60
23560;DHT22;11958;50.836;4.438;2023-07-02T03:37:49;17.10;80.00
23560;DHT22;11958;50.836;4.438;2023-07-02T03:40:14;17.20;79.90
23560;DHT22;11958;50.836;4.438;2023-07-02T03:42:40;17.10;80.00
23560;DHT22;11958;50.836;4.438;2023-07-02T03:45:06;17.00;80.70
23560;DHT22;11958;50.836;4.438;2023-07-02T03:47:32;16.90;81.30
23560;DHT22;11958;50.836;4.438;2023-07-02T03:49:57;16.90;81.00
23560;DHT22;11958;50.836;4.438;2023-07-02T03:52:23;17.00;81.50
23560;DHT22;11958;50.836;4.438;2023-07-02T03:54:49;17.20;80.30
23560;DHT22;11958;50.836;4.438;2023-07-02T03:57:14;17.10;80.80
23560;DHT22;11958;50.836;4.438;2023-07-02T03:59:40;17.00;80.90
23560;DHT22;11958;50.836;4.438;2023-07-02T04:02:06;16.90;81.00
23560;DHT22;11958;50.836;4.438;2023-07-02T04:04:31;17.10;81.10
23560;DHT22;11958;50.836;4.438;2023-07-02T04:06:57;16.90;81.10
23560;DHT22;11958;50.836;4.438;2023-07-02T04:09:23;16.80;81.50
23560;DHT22;11958;50.836;4.438;2023-07-02T04:11:48;16.80;81.80
23560;DHT22;11958;50.836;4.438;2023-07-02T04:14:14;16.80;81.70
23560;DHT22;11958;50.836;4.438;2023-07-02T04:16:39;16.90;81.80
23560;DHT22;11958;50.836;4.438;2023-07-02T04:19:05;16.90;81.60
23560;DHT22;11958;50.836;4.438;2023-07-02T04:21:31;16.80;82.00
23560;DHT22;11958;50.836;4.438;2023-07-02T04:23:57;16.70;82.60
23560;DHT22;11958;50.836;4.438;2023-07-02T04:26:22;16.60;82.10
23560;DHT22;11958;50.836;4.438;2023-07-02T04:28:48;16.60;82.50
23560;DHT22;11958;50.836;4.438;2023-07-02T04:31:13;16.70;82.60
23560;DHT22;11958;50.836;4.438;2023-07-02T04:33:39;17.00;81.60
23560;DHT22;11958;50.836;4.438;2023-07-02T04:36:05;16.80;82.30
23560;DHT22;11958;50.836;4.438;2023-07-02T04:38:31;16.90;81.90
23560;DHT22;11958;50.836;4.438;2023-07-02T04:40:57;16.80;82.40
23560;DHT22;11958;50.836;4.438;2023-07-02T04:43:31;16.70;82.60
23560;DHT22;11958;50.836;4.438;2023-07-02T04:45:57;16.90;82.20
23560;DHT22;11958;50.836;4.438;2023-07-02T04:48:23;16.90;82.30
23560;DHT22;11958;50.836;4.438;2023-07-02T04:50:50;16.90;82.20
23560;DHT22;11958;50.836;4.438;2023-07-02T04:53:16;16.80;82.60
23560;DHT22;11958;50.836;4.438;2023-07-02T04:55:42;16.90;82.50
23560;DHT22;11958;50.836;4.438;2023-07-02T04:58:08;17.10;82.30
23560;DHT22;11958;50.836;4.438;2023-07-02T05:00:34;17.30;81.60
23560;DHT22;11958;50.836;4.438;2023-07-02T05:03:00;17.00;81.80
23560;DHT22;11958;50.836;4.438;2023-07-02T05:05:25;17.30;81.30
23560;DHT22;11958;50.836;4.438;2023-07-02T05:07:54;17.10;81.90
23560;DHT22;11958;50.836;4.438;2023-07-02T05:10:20;17.00;81.80
23560;DHT22;11958;50.836;4.438;2023-07-02T05:12:46;16.90;82.40
23560;DHT22;11958;50.836;4.438;2023-07-02T05:15:12;16.80;81.90
23560;DHT22;11958;50.836;4.438;2023-07-02T05:17:37;16.80;82.70
23560;DHT22;11958;50.836;4.438;2023-07-02T05:20:04;17.00;82.10
23560;DHT22;11958;50.836;4.438;2023-07-02T05:22:30;17.10;82.20
23560;DHT22;11958;50.836;4.438;2023-07-02T05:24:56;17.30;81.30
23560;DHT22;11958;50.836;4.438;2023-07-02T05:27:22;17.40;81.10
23560;DHT22;11958;50.836;4.438;2023-07-02T05:29:47;17.40;80.90
23560;DHT22;11958;50.836;4.438;2023-07-02T05:32:13;17.70;80.60
23560;DHT22;11958;50.836;4.438;2023-07-02T05:34:38;17.30;80.80
23560;DHT22;11958;50.836;4.438;2023-07-02T05:37:05;17.40;80.60
23560;DHT22;11958;50.836;4.438;2023-07-02T05:39:31;17.20;81.00
23560;DHT22;11958;50.836;4.438;2023-07-02T05:41:57;17.20;81.70
23560;DHT22;11958;50.836;4.438;2023-07-02T05:44:22;17.30;81.70
23560;DHT22;11958;50.836;4.438;2023-07-02T05:46:48;17.70;81.00
23560;DHT22;11958;50.836;4.438;2023-07-02T05:49:14;17.80;80.70
23560;DHT22;11958;50.836;4.438;2023-07-02T05:51:40;17.90;80.30
23560;DHT22;11958;50.836;4.438;2023-07-02T05:54:06;18.00;80.20
23560;DHT22;11958;50.836;4.438;2023-07-02T05:56:32;17.90;79.20
23560;DHT22;11958;50.836;4.438;2023-07-02T05:58:58;17.80;79.80
23560;DHT22;11958;50.836;4.438;2023-07-02T06:01:23;17.70;80.10
23560;DHT22;11958;50.836;4.438;2023-07-02T06:03:50;17.80;80.10
23560;DHT22;11958;50.836;4.438;2023-07-02T06:06:16;17.90;79.30
23560;DHT22;11958;50.836;4.438;2023-07-02T06:08:41;18.10;79.00
23560;DHT22;11958;50.836;4.438;2023-07-02T06:11:07;18.00;79.20
23560;DHT22;11958;50.836;4.438;2023-07-02T06:13:33;18.20;77.10
23560;DHT22;11958;50.836;4.438;2023-07-02T06:15:58;18.40;77.40
23560;DHT22;11958;50.836;4.438;2023-07-02T06:18:24;18.50;76.40
23560;DHT22;11958;50.836;4.438;2023-07-02T06:20:50;18.40;75.70
23560;DHT22;11958;50.836;4.438;2023-07-02T06:23:16;18.20;76.50
23560;DHT22;11958;50.836;4.438;2023-07-02T06:25:41;18.30;76.30
23560;DHT22;11958;50.836;4.438;2023-07-02T06:28:07;18.70;76.20
23560;DHT22;11958;50.836;4.438;2023-07-02T06:30:33;18.90;74.80
23560;DHT22;11958;50.836;4.438;2023-07-02T06:32:59;18.80;74.80
23560;DHT22;11958;50.836;4.438;2023-07-02T06:35:25;19.10;73.40
23560;DHT22;11958;50.836;4.438;2023-07-02T06:37:50;18.90;73.00
23560;DHT22;11958;50.836;4.438;2023-07-02T06:40:16;18.80;73.00
23560;DHT22;11958;50.836;4.438;2023-07-02T06:42:42;19.00;71.70
23560;DHT22;11958;50.836;4.438;2023-07-02T06:45:07;19.20;71.50
23560;DHT22;11958;50.836;4.438;2023-07-02T06:47:33;19.00;72.10
23560;DHT22;11958;50.836;4.438;2023-07-02T06:49:59;19.00;73.30
23560;DHT22;11958;50.836;4.438;2023-07-02T06:52:25;19.00;74.00
23560;DHT22;11958;50.836;4.438;2023-07-02T06:54:51;19.10;73.60
23560;DHT22;11958;50.836;4.438;2023-07-02T06:57:16;19.20;71.90
23560;DHT22;11958;50.836;4.438;2023-07-02T06:59:43;19.50;71.60
23560;DHT22;11958;50.836;4.438;2023-07-02T07:02:09;19.80;71.20
23560;DHT22;11958;50.836;4.438;2023-07-02T07:04:35;19.90;69.50
23560;DHT22;11958;50.836;4.438;2023-07-02T07:07:01;19.70;67.90
23560;DHT22;11958;50.836;4.438;2023-07-02T07:09:28;20.00;66.30
23560;DHT22;11958;50.836;4.438;2023-07-02T07:11:54;19.80;67.80
23560;DHT22;11958;50.836;4.438;2023-07-02T07:14:20;19.90;64.90
23560;DHT22;11958;50.836;4.438;2023-07-02T07:16:46;19.80;63.90
23560;DHT22;11958;50.836;4.438;2023-07-02T07:19:11;19.70;60.70
23560;DHT22;11958;50.836;4.438;2023-07-02T07:21:37;19.40;61.50
23560;DHT22;11958;50.836;4.438;2023-07-02T07:24:06;19.40;65.70
23560;DHT22;11958;50.836;4.438;2023-07-02T07:26:32;19.70;63.70
23560;DHT22;11958;50.836;4.438;2023-07-02T07:28:58;19.90;61.30
23560;DHT22;11958;50.836;4.438;2023-07-02T07:31:24;19.80;59.90
23560;DHT22;11958;50.836;4.438;2023-07-02T07:33:50;19.90;60.50
23560;DHT22;11958;50.836;4.438;2023-07-02T07:36:16;20.00;60.40
23560;DHT22;11958;50.836;4.438;2023-07-02T07:38:43;19.80;59.30
23560;DHT22;11958;50.836;4.438;2023-07-02T07:41:09;20.00;61.50
23560;DHT22;11958;50.836;4.438;2023-07-02T07:43:34;20.00;59.40
23560;DHT22;11958;50.836;4.438;2023-07-02T07:46:00;20.40;59.40
23560;DHT22;11958;50.836;4.438;2023-07-02T07:48:26;20.50;59.30
23560;DHT22;11958;50.836;4.438;2023-07-02T07:50:52;20.50;58.70
23560;DHT22;11958;50.836;4.438;2023-07-02T07:53:18;20.80;58.10
23560;DHT22;11958;50.836;4.438;2023-07-02T07:55:43;21.00;56.80
23560;DHT22;11958;50.836;4.438;2023-07-02T07:58:12;20.80;58.00
23560;DHT22;11958;50.836;4.438;2023-07-02T08:00:37;21.10;56.80
23560;DHT22;11958;50.836;4.438;2023-07-02T08:03:03;21.20;57.30
23560;DHT22;11958;50.836;4.438;2023-07-02T08:05:30;21.30;56.20
23560;DHT22;11958;50.836;4.438;2023-07-02T08:07:56;21.60;53.30
23560;DHT22;11958;50.836;4.438;2023-07-02T08:10:22;21.10;53.40
23560;DHT22;11958;50.836;4.438;2023-07-02T08:12:49;20.90;54.60
23560;DHT22;11958;50.836;4.438;2023-07-02T08:15:15;21.10;54.20
23560;DHT22;11958;50.836;4.438;2023-07-02T08:17:44;21.30;56.00
23560;DHT22;11958;50.836;4.438;2023-07-02T08:20:11;21.50;55.70
23560;DHT22;11958;50.836;4.438;2023-07-02T08:22:40;21.50;52.40
23560;DHT22;11958;50.836;4.438;2023-07-02T08:25:06;21.80;51.80
23560;DHT22;11958;50.836;4.438;2023-07-02T08:27:32;21.60;53.80
23560;DHT22;11958;50.836;4.438;2023-07-02T08:29:58;21.70;52.40
23560;DHT22;11958;50.836;4.438;2023-07-02T08:32:29;21.80;50.20
23560;DHT22;11958;50.836;4.438;2023-07-02T08:34:55;21.90;49.50
23560;DHT22;11958;50.836;4.438;2023-07-02T08:37:21;21.80;49.90
23560;DHT22;11958;50.836;4.438;2023-07-02T08:39:49;21.70;50.10
23560;DHT22;11958;50.836;4.438;2023-07-02T08:42:15;21.50;51.80
23560;DHT22;11958;50.836;4.438;2023-07-02T08:44:45;21.20;50.80
23560;DHT22;11958;50.836;4.438;2023-07-02T08:47:11;21.40;52.90
23560;DHT22;11958;50.836;4.438;2023-07-02T08:49:36;21.40;52.40
23560;DHT22;11958;50.836;4.438;2023-07-02T08:52:02;21.40;54.20
23560;DHT22;11958;50.836;4.438;2023-07-02T08:54:28;21.50;52.90
23560;DHT22;11958;50.836;4.438;2023-07-02T08:56:54;21.70;53.20
23560;DHT22;11958;50.836;4.438;2023-07-02T08:59:20;21.80;53.80
23560;DHT22;11958;50.836;4.438;2023-07-02T09:01:53;21.60;52.50
23560;DHT22;11958;50.836;4.438;2023-07-02T09:06:47;21.80;52.70
23560;DHT22;11958;50.836;4.438;2023-07-02T09:09:13;21.70;52.80
23560;DHT22;11958;50.836;4.438;2023-07-02T09:11:49;21.10;52.20
23560;DHT22;11958;50.836;4.438;2023-07-02T09:14:29;21.40;50.50
23560;DHT22;11958;50.836;4.438;2023-07-02T09:17:06;21.30;50.80
23560;DHT22;11958;50.836;4.438;2023-07-02T09:19:33;21.80;49.20
23560;DHT22;11958;50.836;4.438;2023-07-02T09:21:59;21.40;50.50
23560;DHT22;11958;50.836;4.438;2023-07-02T09:24:26;21.70;48.70
23560;DHT22;11958;50.836;4.438;2023-07-02T09:26:54;21.70;50.30
23560;DHT22;11958;50.836;4.438;2023-07-02T09:29:28;21.80;49.90
23560;DHT22;11958;50.836;4.438;2023-07-02T09:32:03;21.80;49.10
23560;DHT22;11958;50.836;4.438;2023-07-02T09:34:36;21.70;50.50
23560;DHT22;11958;50.836;4.438;2023-07-02T09:37:04;21.20;52.30
23560;DHT22;11958;50.836;4.438;2023-07-02T09:39:34;21.30;52.00
23560;DHT22;11958;50.836;4.438;2023-07-02T09:42:02;21.40;52.00
23560;DHT22;11958;50.836;4.438;2023-07-02T09:44:31;21.60;51.60
23560;DHT22;11958;50.836;4.438;2023-07-02T09:47:08;21.70;50.00
23560;DHT22;11958;50.836;4.438;2023-07-02T09:49:34;22.00;46.90
23560;DHT22;11958;50.836;4.438;2023-07-02T09:52:05;22.00;48.30
23560;DHT22;11958;50.836;4.438;2023-07-02T09:54:31;21.80;45.90
23560;DHT22;11958;50.836;4.438;2023-07-02T09:56:58;21.80;46.90
23560;DHT22;11958;50.836;4.438;2023-07-02T09:59:24;21.80;47.10
23560;DHT22;11958;50.836;4.438;2023-07-02T10:01:51;21.70;49.90
23560;DHT22;11958;50.836;4.438;2023-07-02T10:04:19;21.80;49.90
23560;DHT22;11958;50.836;4.438;2023-07-02T10:06:55;21.90;47.20
23560;DHT22;11958;50.836;4.438;2023-07-02T10:09:38;21.90;47.90
23560;DHT22;11958;50.836;4.438;2023-07-02T10:12:24;22.00;49.00
23560;DHT22;11958;50.836;4.438;2023-07-02T10:14:59;21.70;48.40
23560;DHT22;11958;50.836;4.438;2023-07-02T10:17:30;21.60;48.70
23560;DHT22;11958;50.836;4.438;2023-07-02T10:19:58;21.80;47.60
23560;DHT22;11958;50.836;4.438;2023-07-02T10:22:24;21.70;50.60
23560;DHT22;11958;50.836;4.438;2023-07-02T10:25:00;22.10;47.50
23560;DHT22;11958;50.836;4.438;2023-07-02T10:27:42;22.40;45.30
23560;DHT22;11958;50.836;4.438;2023-07-02T10:30:09;22.30;44.80
23560;DHT22;11958;50.836;4.438;2023-07-02T10:32:36;22.30;45.20
23560;DHT22;11958;50.836;4.438;2023-07-02T10:35:23;22.40;43.80
23560;DHT22;11958;50.836;4.438;2023-07-02T10:37:51;22.40;44.00
23560;DHT22;11958;50.836;4.438;2023-07-02T10:40:17;22.50;44.80
23560;DHT22;11958;50.836;4.438;2023-07-02T10:42:47;22.50;46.00
23560;DHT22;11958;50.836;4.438;2023-07-02T10:45:12;22.40;47.20
23560;DHT22;11958;50.836;4.438;2023-07-02T10:47:42;22.40;44.60
23560;DHT22;11958;50.836;4.438;2023-07-02T10:52:40;22.30;45.70
23560;DHT22;11958;50.836;4.438;2023-07-02T10:55:06;22.60;42.90
23560;DHT22;11958;50.836;4.438;2023-07-02T10:57:32;22.60;44.20
23560;DHT22;11958;50.836;4.438;2023-07-02T11:00:07;22.70;45.10
23560;DHT22;11958;50.836;4.438;2023-07-02T11:02:37;23.30;43.60
23560;DHT22;11958;50.836;4.438;2023-07-02T11:05:05;23.60;43.10
23560;DHT22;11958;50.836;4.438;2023-07-02T11:07:32;23.60;44.50
23560;DHT22;11958;50.836;4.438;2023-07-02T11:09:58;23.50;43.20
23560;DHT22;11958;50.836;4.438;2023-07-02T11:12:31;23.40;43.60
23560;DHT22;11958;50.836;4.438;2023-07-02T11:15:12;23.10;43.40
23560;DHT22;11958;50.836;4.438;2023-07-02T11:17:39;22.90;43.30
23560;DHT22;11958;50.836;4.438;2023-07-02T11:20:08;23.40;42.80
23560;DHT22;11958;50.836;4.438;2023-07-02T11:22:35;23.70;39.90
23560;DHT22;11958;50.836;4.438;2023-07-02T11:25:18;23.80;38.10
23560;DHT22;11958;50.836;4.438;2023-07-02T11:27:45;23.70;37.60
23560;DHT22;11958;50.836;4.438;2023-07-02T11:30:12;23.20;39.70
23560;DHT22;11958;50.836;4.438;2023-07-02T11:32:48;23.10;40.20
23560;DHT22;11958;50.836;4.438;2023-07-02T11:35:14;22.90;39.80
23560;DHT22;11958;50.836;4.438;2023-07-02T11:37:41;22.80;42.50
23560;DHT22;11958;50.836;4.438;2023-07-02T11:40:08;23.00;39.10
23560;DHT22;11958;50.836;4.438;2023-07-02T11:42:34;23.30;42.30
23560;DHT22;11958;50.836;4.438;2023-07-02T11:44:59;23.60;36.60
23560;DHT22;11958;50.836;4.438;2023-07-02T11:47:25;23.70;36.20
23560;DHT22;11958;50.836;4.438;2023-07-02T11:49:53;23.50;37.10
23560;DHT22;11958;50.836;4.438;2023-07-02T11:52:20;24.00;34.90
23560;DHT22;11958;50.836;4.438;2023-07-02T11:54:46;23.80;35.40
23560;DHT22;11958;50.836;4.438;2023-07-02T11:57:12;23.90;37.10
23560;DHT22;11958;50.836;4.438;2023-07-02T11:59:38;24.50;35.80
23560;DHT22;11958;50.836;4.438;2023-07-02T12:02:04;24.20;36.30
23560;DHT22;11958;50.836;4.438;2023-07-02T12:04:30;24.20;35.50
23560;DHT22;11958;50.836;4.438;2023-07-02T12:06:55;24.20;36.50
23560;DHT22;11958;50.836;4.438;2023-07-02T12:09:21;24.50;35.60
23560;DHT22;11958;50.836;4.438;2023-07-02T12:11:47;24.30;35.90
23560;DHT22;11958;50.836;4.438;2023-07-02T12:14:13;24.30;35.60
23560;DHT22;11958;50.836;4.438;2023-07-02T12:16:38;24.40;33.90
23560;DHT22;11958;50.836;4.438;2023-07-02T12:19:04;24.50;34.60
23560;DHT22;11958;50.836;4.438;2023-07-02T12:21:30;24.40;34.40
23560;DHT22;11958;50.836;4.438;2023-07-02T12:23:55;25.30;34.40
23560;DHT22;11958;50.836;4.438;2023-07-02T12:26:21;25.80;32.40
23560;DHT22;11958;50.836;4.438;2023-07-02T12:28:47;25.60;33.10
23560;DHT22;11958;50.836;4.438;2023-07-02T12:31:12;25.60;31.40
23560;DHT22;11958;50.836;4.438;2023-07-02T12:33:39;25.80;31.00
23560;DHT22;11958;50.836;4.438;2023-07-02T12:36:05;25.80;32.50
23560;DHT22;11958;50.836;4.438;2023-07-02T12:38:31;25.60;32.20
23560;DHT22;11958;50.836;4.438;2023-07-02T12:40:57;26.30;31.40
23560;DHT22;11958;50.836;4.438;2023-07-02T12:43:22;25.90;31.80
23560;DHT22;11958;50.836;4.438;2023-07-02T12:45:48;27.10;30.80
23560;DHT22;11958;50.836;4.438;2023-07-02T12:48:14;27.50;28.40
23560;DHT22;11958;50.836;4.438;2023-07-02T12:50:39;26.70;27.90
23560;DHT22;11958;50.836;4.438;2023-07-02T12:53:06;25.80;30.90
23560;DHT22;11958;50.836;4.438;2023-07-02T12:55:31;25.10;34.60
23560;DHT22;11958;50.836;4.438;2023-07-02T12:57:57;24.70;33.70
23560;DHT22;11958;50.836;4.438;2023-07-02T13:00:23;24.50;33.80
23560;DHT22;11958;50.836;4.438;2023-07-02T13:02:49;25.30;33.40
23560;DHT22;11958;50.836;4.438;2023-07-02T13:05:15;26.30;31.90
23560;DHT22;11958;50.836;4.438;2023-07-02T13:07:40;28.10;29.00
23560;DHT22;11958;50.836;4.438;2023-07-02T13:10:06;28.70;28.10
23560;DHT22;11958;50.836;4.438;2023-07-02T13:12:32;30.20;26.30
23560;DHT22;11958;50.836;4.438;2023-07-02T13:14:58;30.40;26.60
23560;DHT22;11958;50.836;4.438;2023-07-02T13:17:24;30.20;24.60
23560;DHT22;11958;50.836;4.438;2023-07-02T13:19:50;28.70;26.90
23560;DHT22;11958;50.836;4.438;2023-07-02T13:22:15;27.10;27.50
23560;DHT22;11958;50.836;4.438;2023-07-02T13:24:41;26.50;31.50
23560;DHT22;11958;50.836;4.438;2023-07-02T13:27:11;27.00;27.60
23560;DHT22;11958;50.836;4.438;2023-07-02T13:29:37;26.80;27.70
23560;DHT22;11958;50.836;4.438;2023-07-02T13:32:03;26.40;28.40
23560;DHT22;11958;50.836;4.438;2023-07-02T13:34:28;26.80;28.70
23560;DHT22;11958;50.836;4.438;2023-07-02T13:36:54;26.90;27.90
23560;DHT22;11958;50.836;4.438;2023-07-02T13:39:20;26.80;28.00
23560;DHT22;11958;50.836;4.438;2023-07-02T13:41:46;26.70;28.30
23560;DHT22;11958;50.836;4.438;2023-07-02T13:44:11;26.60;29.80
23560;DHT22;11958;50.836;4.438;2023-07-02T13:46:37;27.10;28.20
23560;DHT22;11958;50.836;4.438;2023-07-02T13:49:03;26.70;27.90
23560;DHT22;11958;50.836;4.438;2023-07-02T13:51:28;27.50;29.20
23560;DHT22;11958;50.836;4.438;2023-07-02T13:53:54;28.60;26.50
23560;DHT22;11958;50.836;4.438;2023-07-02T13:56:20;28.80;25.70
23560;DHT22;11958;50.836;4.438;2023-07-02T13:59:08;28.90;26.10
23560;DHT22;11958;50.836;4.438;2023-07-02T14:01:33;28.80;26.00
23560;DHT22;11958;50.836;4.438;2023-07-02T14:04:00;29.20;25.30
23560;DHT22;11958;50.836;4.438;2023-07-02T14:06:26;29.00;24.50
23560;DHT22;11958;50.836;4.438;2023-07-02T14:08:52;29.00;24.50
23560;DHT22;11958;50.836;4.438;2023-07-02T14:11:18;29.10;26.50
23560;DHT22;11958;50.836;4.438;2023-07-02T14:13:57;29.50;24.40
23560;DHT22;11958;50.836;4.438;2023-07-02T14:16:29;30.30;23.10
23560;DHT22;11958;50.836;4.438;2023-07-02T14:18:54;30.40;25.80
23560;DHT22;11958;50.836;4.438;2023-07-02T14:21:20;29.50;24.20
23560;DHT22;11958;50.836;4.438;2023-07-02T14:23:46;28.80;26.20
23560;DHT22;11958;50.836;4.438;2023-07-02T14:26:12;28.40;25.80
23560;DHT22;11958;50.836;4.438;2023-07-02T14:28:38;28.70;25.10
23560;DHT22;11958;50.836;4.438;2023-07-02T14:31:05;28.40;25.80
23560;DHT22;11958;50.836;4.438;2023-07-02T14:33:33;29.40;25.40
23560;DHT22;11958;50.836;4.438;2023-07-02T14:35:59;29.40;23.80
23560;DHT22;11958;50.836;4.438;2023-07-02T14:38:26;29.40;24.00
23560;DHT22;11958;50.836;4.438;2023-07-02T14:40:54;30.40;25.10
23560;DHT22;11958;50.836;4.438;2023-07-02T14:43:21;31.70;22.20
23560;DHT22;11958;50.836;4.438;2023-07-02T14:45:49;31.10;23.60
23560;DHT22;11958;50.836;4.438;2023-07-02T14:48:16;30.60;25.30
23560;DHT22;11958;50.836;4.438;2023-07-02T14:50:49;31.30;24.20
23560;DHT22;11958;50.836;4.438;2023-07-02T14:53:16;31.60;22.30
23560;DHT22;11958;50.836;4.438;2023-07-02T14:55:42;30.80;23.70
23560;DHT22;11958;50.836;4.438;2023-07-02T14:58:07;29.80;23.10
23560;DHT22;11958;50.836;4.438;2023-07-02T15:00:33;30.40;22.30
23560;DHT22;11958;50.836;4.438;2023-07-02T15:03:02;29.40;24.00
23560;DHT22;11958;50.836;4.438;2023-07-02T15:05:28;29.20;25.30
23560;DHT22;11958;50.836;4.438;2023-07-02T15:07:54;29.60;22.70
23560;DHT22;11958;50.836;4.438;2023-07-02T15:10:19;30.40;21.90
23560;DHT22;11958;50.836;4.438;2023-07-02T15:12:45;30.50;22.30
23560;DHT22;11958;50.836;4.438;2023-07-02T15:15:13;29.60;23.20
23560;DHT22;11958;50.836;4.438;2023-07-02T15:17:39;29.50;23.60
23560;DHT22;11958;50.836;4.438;2023-07-02T15:20:05;27.40;25.40
23560;DHT22;11958;50.836;4.438;2023-07-02T15:22:31;26.80;25.60
23560;DHT22;11958;50.836;4.438;2023-07-02T15:24:57;26.40;26.70
23560;DHT22;11958;50.836;4.438;2023-07-02T15:27:22;26.50;27.60
23560;DHT22;11958;50.836;4.438;2023-07-02T15:29:48;26.00;29.10
23560;DHT22;11958;50.836;4.438;2023-07-02T15:32:14;26.50;28.70
23560;DHT22;11958;50.836;4.438;2023-07-02T15:34:39;26.40;27.10